Seattle, Washington
Traffic Map
Current Weather Conditions
Seattle, Washington
Broken Clouds
Broken Clouds
21°
Feels Like: 21°
Wind Chill: 21° Ceiling: 5000
Heat Index: 21° Visibility: 10mi
Dew Point: Wind: 7mph
Humidity: 47% Direction: 300° (WNW)
Pressure: 30.01in Gusts: 0mph
Raw Report DataKBFI 270053Z 30006KT 10SM BKN050 BKN250 21/09 A3001 RMK AO2 SLP161 T02110094
Traffic Incident Summary
Active as of:
Severity:
Category:
InformationThere was an issue retrieving the traffic information for this location. Please try a different location or try again shortly.
Advertisements
Track Severe Weather on mobile